Aérodrome :
LOGIN :

S'inscrire | Disclaimer

   EN    FR    IT 

 










Légende :    VFR   VFR Marginal   IFR   IFR Intensif   IFR Très Intensif
Visi : 
Plafond : 
>= 8 km
>= 3000ft
5 à 8 km
1000 à 3000 ft
1500m à 5 km
500 à 1000 ft
800 à 1500m
200 à 500 ft
< 800m
< 200 ft
Symboles :   Orages  Brouillard  Fortes neiges  Fortes précipitations  Vent > 20 kt
SIGMETs :   Divers  Orages  Givrage  Turbulence  Onde Orograph.  Cendres Volcan.






- Altitude de l'aérodrome : 147 ft
- Code IATA : DUS


EDDL - Düsseldorf Int.

DERNIER METAR :
  • 291650Z 07012KT 030V110 CAVOK 22/01 Q1024 NOSIG

METARs EXPIRÉS :
  • 291620Z 07011KT 020V110 CAVOK 22/04 Q1024 NOSIG
  • 291550Z 04007KT 360V140 CAVOK 23/05 Q1024 NOSIG
  • 291520Z 04009KT 350V080 CAVOK 23/04 Q1025 NOSIG
  • 291450Z 04010KT 360V070 CAVOK 23/03 Q1025 NOSIG
  • 291420Z 05008KT 360V100 CAVOK 23/03 Q1025 NOSIG

TAF TAF EDDL
Valide du 29 à 12h jusqu'au 30 à 18h UTC


291100Z 2912/3018 04010KT CAVOK
BECMG 2919/2923 04004KT
BECMG 3008/3011 06010KT



MET'MAP, la Météo Aéronautique d'un coup d'oeil ! - Copyright ORBIFLY Décembre 2007 - Disclaimer

ORBIFLY MET'MAP TEAM :

Programmation & Développement : Alexandra Zaïnal
Sur une idée originale de : Baudouin d'Aumeries
Assistance à la programmation : Marc-Olivier Méhu
Soutien technique & logistique : Manuel Goepfert

Contact : metmap@orbifly.com




SOURCES & CREDITS :

   NOAA